createdAt,value
2023-05-19T00:01:52.856Z,5.55
2023-05-19T00:03:59.274Z,5.47
2023-05-19T00:06:06.381Z,5.32
2023-05-19T00:08:13.875Z,5.70
2023-05-19T00:10:21.030Z,5.75
2023-05-19T00:12:26.929Z,5.00
2023-05-19T00:14:35.239Z,6.38
2023-05-19T00:16:44.334Z,5.10
2023-05-19T00:18:53.637Z,5.85
2023-05-19T00:21:01.502Z,5.05
2023-05-19T00:23:06.683Z,5.80
2023-05-19T00:25:13.049Z,5.97
2023-05-19T00:27:17.997Z,5.45
2023-05-19T00:29:28.727Z,5.10
2023-05-19T00:31:34.595Z,5.53
2023-05-19T00:33:40.037Z,6.40
2023-05-19T00:35:47.933Z,4.93
2023-05-19T00:37:55.115Z,5.63
2023-05-19T00:40:00.187Z,5.70
2023-05-19T00:42:08.904Z,5.75
2023-05-19T00:44:14.206Z,6.13
2023-05-19T00:46:19.782Z,5.63
2023-05-19T00:48:25.310Z,5.32
2023-05-19T00:50:31.235Z,5.55
2023-05-19T00:52:39.243Z,5.93
2023-05-19T00:54:44.691Z,5.22
2023-05-19T00:56:51.982Z,4.80
2023-05-19T00:58:57.897Z,5.20
2023-05-19T01:01:07.290Z,5.78
2023-05-19T01:03:15.362Z,5.35
2023-05-19T01:05:21.869Z,5.75
2023-05-19T01:07:27.722Z,5.45
2023-05-19T01:09:36.016Z,6.55
2023-05-19T01:11:44.120Z,5.57
2023-05-19T01:13:51.614Z,5.75
2023-05-19T01:16:04.067Z,5.35
2023-05-19T01:18:14.832Z,5.82
2023-05-19T01:20:32.541Z,5.63
2023-05-19T01:23:09.847Z,6.13
2023-05-19T01:25:49.054Z,6.32
2023-05-19T01:28:38.194Z,6.20
2023-05-19T01:30:47.145Z,5.85
2023-05-19T01:32:54.920Z,6.72
2023-05-19T01:35:01.272Z,6.20
2023-05-19T01:37:07.191Z,5.88
2023-05-19T01:39:12.500Z,6.25
2023-05-19T01:41:21.357Z,6.90
2023-05-19T01:43:32.035Z,6.00
2023-05-19T01:45:38.658Z,7.05
2023-05-19T01:47:57.712Z,6.32
2023-05-19T01:50:03.201Z,6.40
2023-05-19T01:52:09.186Z,6.53
2023-05-19T01:54:14.439Z,6.40
2023-05-19T01:56:30.451Z,7.03
2023-05-19T01:58:44.672Z,6.50
2023-05-19T02:00:56.806Z,7.55
2023-05-19T02:03:18.334Z,7.10
2023-05-19T02:05:31.739Z,6.25
2023-05-19T02:07:47.224Z,7.10
2023-05-19T02:10:03.157Z,6.60
2023-05-19T02:12:14.442Z,6.65
2023-05-19T02:14:27.824Z,7.68
2023-05-19T02:16:37.236Z,7.70
2023-05-19T02:18:46.440Z,6.45
2023-05-19T02:20:53.926Z,7.05
2023-05-19T02:23:01.519Z,7.18
2023-05-19T02:25:07.288Z,7.75
2023-05-19T02:27:12.242Z,7.03
2023-05-19T02:29:17.682Z,6.85
2023-05-19T02:31:22.744Z,6.60
2023-05-19T02:33:33.582Z,7.13
2023-05-19T02:35:43.821Z,7.65
2023-05-19T02:37:51.311Z,7.00
2023-05-19T02:39:56.397Z,6.88
2023-05-19T02:42:01.869Z,6.95
2023-05-19T02:44:07.918Z,7.07
2023-05-19T02:46:13.054Z,7.40
2023-05-19T02:48:18.192Z,7.07
2023-05-19T02:50:26.534Z,6.78
2023-05-19T02:52:34.669Z,7.32
2023-05-19T02:54:39.941Z,7.70
2023-05-19T02:56:45.015Z,7.70
2023-05-19T02:58:53.026Z,8.05
2023-05-19T03:00:59.464Z,7.78
2023-05-19T03:03:04.986Z,7.07
2023-05-19T03:05:12.749Z,6.55
2023-05-19T03:07:19.181Z,7.13
2023-05-19T03:09:30.434Z,8.18
2023-05-19T03:11:35.554Z,7.70
2023-05-19T03:13:42.029Z,8.38
2023-05-19T03:15:51.628Z,6.88
2023-05-19T03:17:57.198Z,7.72
2023-05-19T03:20:02.819Z,9.15
2023-05-19T03:22:08.311Z,8.00
2023-05-19T03:24:13.356Z,7.60
2023-05-19T03:26:23.347Z,8.88
2023-05-19T03:28:31.464Z,7.45
2023-05-19T03:30:40.099Z,7.60
2023-05-19T03:32:48.452Z,7.55
2023-05-19T03:34:56.677Z,7.68
2023-05-19T03:37:01.866Z,6.70
2023-05-19T03:39:07.333Z,7.80
2023-05-19T03:41:12.342Z,7.78
2023-05-19T03:43:22.491Z,8.10
2023-05-19T03:45:27.730Z,7.35
2023-05-19T03:47:35.023Z,9.35
2023-05-19T03:49:40.327Z,7.68
2023-05-19T03:51:45.496Z,8.00
2023-05-19T03:53:51.582Z,8.43
2023-05-19T03:55:57.129Z,8.48
2023-05-19T03:58:02.800Z,8.50
2023-05-19T04:00:12.775Z,8.23
2023-05-19T04:02:17.855Z,7.80
2023-05-19T04:04:27.824Z,7.80
2023-05-19T04:06:34.162Z,7.93
2023-05-19T04:08:39.378Z,8.10
2023-05-19T04:10:44.431Z,8.68
2023-05-19T04:12:53.679Z,8.13
2023-05-19T04:15:01.452Z,8.70
2023-05-19T04:17:09.248Z,8.07
2023-05-19T04:19:14.654Z,8.35
2023-05-19T04:21:22.566Z,9.13
2023-05-19T04:23:27.644Z,8.15
2023-05-19T04:25:39.078Z,8.60
2023-05-19T04:27:44.047Z,8.10
2023-05-19T04:29:51.701Z,8.75
2023-05-19T04:31:57.669Z,10.50
2023-05-19T04:34:05.390Z,7.35
2023-05-19T04:36:11.739Z,7.55
2023-05-19T04:38:20.317Z,9.95
2023-05-19T04:40:26.820Z,8.18
2023-05-19T04:42:33.304Z,8.38
2023-05-19T04:44:38.315Z,9.13
2023-05-19T04:46:45.492Z,8.98
2023-05-19T04:48:51.550Z,10.45
2023-05-19T04:51:01.860Z,9.00
2023-05-19T04:53:07.377Z,9.25
2023-05-19T04:55:14.319Z,9.45
2023-05-19T04:57:20.535Z,9.38
2023-05-19T04:59:26.756Z,8.57
2023-05-19T05:01:33.242Z,9.32
2023-05-19T05:03:38.812Z,10.57
2023-05-19T05:05:44.125Z,8.98
2023-05-19T05:07:54.312Z,8.68
2023-05-19T05:10:00.057Z,8.77
2023-05-19T05:12:08.001Z,9.10
2023-05-19T05:14:14.700Z,10.00
2023-05-19T05:16:21.550Z,8.60
2023-05-19T05:18:31.179Z,9.85
2023-05-19T05:20:37.543Z,8.48
2023-05-19T05:22:44.762Z,9.77
2023-05-19T05:24:56.412Z,9.88
2023-05-19T05:27:02.013Z,10.98
2023-05-19T05:29:07.437Z,8.65
2023-05-19T05:31:12.564Z,8.65
2023-05-19T05:33:19.828Z,9.70
2023-05-19T05:35:27.564Z,8.57
2023-05-19T05:37:34.332Z,9.15
2023-05-19T05:39:39.446Z,8.65
2023-05-19T05:41:47.242Z,8.73
2023-05-19T05:43:53.319Z,8.50
2023-05-19T05:46:00.360Z,8.60
2023-05-19T05:48:06.457Z,9.10
2023-05-19T05:50:13.224Z,9.30
2023-05-19T05:52:19.397Z,8.05
2023-05-19T05:54:31.461Z,8.13
2023-05-19T05:56:40.305Z,8.13
2023-05-19T05:58:48.089Z,7.15
2023-05-19T06:00:58.220Z,7.40
2023-05-19T06:03:03.382Z,7.03
2023-05-19T06:05:11.398Z,8.00
2023-05-19T06:07:16.481Z,7.53
2023-05-19T06:09:34.766Z,8.60
2023-05-19T06:11:39.894Z,6.90
2023-05-19T06:13:47.777Z,8.00
2023-05-19T06:15:59.247Z,7.57
2023-05-19T06:18:06.143Z,7.22
2023-05-19T06:20:13.502Z,6.93
2023-05-19T06:22:25.438Z,8.07
2023-05-19T06:24:31.559Z,7.13
2023-05-19T06:26:37.096Z,6.32
2023-05-19T06:28:42.147Z,6.68
2023-05-19T06:30:53.014Z,7.00
2023-05-19T06:32:58.119Z,6.93
2023-05-19T06:35:03.295Z,6.07
2023-05-19T06:37:08.228Z,6.28
2023-05-19T06:39:13.773Z,6.10
2023-05-19T06:41:21.972Z,7.07
2023-05-19T06:43:27.276Z,6.00
2023-05-19T06:45:35.032Z,5.60
2023-05-19T06:47:44.850Z,6.75
2023-05-19T06:49:55.606Z,6.53
2023-05-19T06:52:00.775Z,5.75
2023-05-19T06:54:06.093Z,5.75
2023-05-19T06:56:11.148Z,6.35
2023-05-19T06:58:16.566Z,5.60
2023-05-19T07:00:27.114Z,5.35
2023-05-19T07:02:35.289Z,5.30
2023-05-19T07:04:43.493Z,5.50
2023-05-19T07:06:53.569Z,5.43
2023-05-19T07:08:59.441Z,5.35
2023-05-19T07:11:05.044Z,6.07
2023-05-19T07:13:10.120Z,4.80
2023-05-19T07:15:15.254Z,5.47
2023-05-19T07:17:23.510Z,5.45
2023-05-19T07:19:31.306Z,4.88
2023-05-19T07:21:39.262Z,5.20
2023-05-19T07:23:45.839Z,5.45
2023-05-19T07:25:52.329Z,5.50
2023-05-19T07:27:59.207Z,5.50
2023-05-19T07:30:04.828Z,5.40
2023-05-19T07:32:10.303Z,5.32
2023-05-19T07:34:15.264Z,5.10
2023-05-19T07:36:20.582Z,5.70
2023-05-19T07:38:31.702Z,5.80
2023-05-19T07:40:36.745Z,5.25
2023-05-19T07:42:41.778Z,5.43
2023-05-19T07:44:46.973Z,5.50
2023-05-19T07:46:52.272Z,4.70
2023-05-19T07:48:57.353Z,4.97
2023-05-19T07:51:02.538Z,4.85
2023-05-19T07:53:07.624Z,5.25
2023-05-19T07:55:15.854Z,4.97
2023-05-19T07:57:21.172Z,4.63
2023-05-19T07:59:27.644Z,4.30
2023-05-19T08:01:33.542Z,5.05
2023-05-19T08:03:38.830Z,4.78
2023-05-19T08:05:44.018Z,4.43
2023-05-19T08:07:49.149Z,4.90
2023-05-19T08:09:54.612Z,4.88
2023-05-19T08:12:02.665Z,5.32
2023-05-19T08:14:07.949Z,4.38
2023-05-19T08:16:13.480Z,4.32
2023-05-19T08:18:20.378Z,3.95
2023-05-19T08:20:27.150Z,4.55
2023-05-19T08:22:35.324Z,5.18
2023-05-19T08:24:43.621Z,4.45
2023-05-19T08:26:49.057Z,4.68
2023-05-19T08:28:56.910Z,4.13
2023-05-19T08:31:02.283Z,3.92
2023-05-19T08:33:07.505Z,4.03
2023-05-19T08:35:13.382Z,3.72
2023-05-19T08:37:22.477Z,3.75
2023-05-19T08:39:28.832Z,4.07
2023-05-19T08:41:34.232Z,4.25
2023-05-19T08:43:39.692Z,3.53
2023-05-19T08:45:50.516Z,3.65
2023-05-19T08:47:57.646Z,3.25
2023-05-19T08:50:10.198Z,3.70
2023-05-19T08:52:25.309Z,3.75
2023-05-19T08:54:40.438Z,3.67
2023-05-19T08:56:46.996Z,3.42
2023-05-19T08:59:00.017Z,3.40
2023-05-19T09:01:08.315Z,4.03
2023-05-19T09:05:26.251Z,3.50
2023-05-19T09:07:38.420Z,3.30
2023-05-19T09:09:44.213Z,3.37
2023-05-19T09:11:50.029Z,3.33
2023-05-19T09:13:55.144Z,3.28
2023-05-19T09:16:01.097Z,3.10
2023-05-19T09:18:15.886Z,3.08
2023-05-19T09:20:22.516Z,3.25
2023-05-19T09:22:27.739Z,3.58
2023-05-19T09:24:33.518Z,3.28
2023-05-19T09:26:42.549Z,3.38
2023-05-19T09:28:51.809Z,3.38
2023-05-19T09:31:14.815Z,3.38
2023-05-19T09:33:23.911Z,3.28
2023-05-19T09:35:32.310Z,3.22
2023-05-19T09:37:40.448Z,3.20
2023-05-19T09:39:52.247Z,3.03
2023-05-19T09:41:58.957Z,3.10
2023-05-19T09:44:03.903Z,2.90
2023-05-19T09:46:12.898Z,2.97
2023-05-19T09:48:22.588Z,3.10
2023-05-19T09:50:30.385Z,3.13
2023-05-19T09:52:39.013Z,3.13
2023-05-19T09:54:44.203Z,2.90
2023-05-19T09:56:49.537Z,3.20
2023-05-19T09:58:56.798Z,3.05
2023-05-19T10:01:02.667Z,2.95
2023-05-19T10:03:12.707Z,2.95
2023-05-19T10:05:22.120Z,3.20
2023-05-19T10:07:28.490Z,3.42
2023-05-19T10:09:33.397Z,3.40
2023-05-19T10:11:38.534Z,3.28
2023-05-19T10:13:44.360Z,4.63
2023-05-19T10:15:59.306Z,3.75
2023-05-19T10:18:06.580Z,3.50
2023-05-19T10:20:14.407Z,3.63
2023-05-19T10:22:24.433Z,3.92
2023-05-19T10:24:30.110Z,3.40
2023-05-19T10:26:35.525Z,3.25
2023-05-19T10:28:44.423Z,3.67
2023-05-19T10:30:53.645Z,3.72
2023-05-19T10:33:03.187Z,3.60
2023-05-19T10:35:47.306Z,3.63
2023-05-19T10:38:07.960Z,3.35
2023-05-19T10:40:20.518Z,3.85
2023-05-19T10:42:36.676Z,4.10
2023-05-19T10:44:56.693Z,3.70
2023-05-19T10:47:01.893Z,3.67
2023-05-19T10:49:07.270Z,3.60
2023-05-19T10:51:12.636Z,3.67
2023-05-19T10:53:24.196Z,3.47
2023-05-19T10:55:53.529Z,3.65
2023-05-19T10:58:00.690Z,3.63
2023-05-19T11:00:11.964Z,3.30
2023-05-19T11:02:43.273Z,3.97
2023-05-19T11:04:53.237Z,3.90
2023-05-19T11:06:58.717Z,3.60
2023-05-19T11:09:14.816Z,3.95
2023-05-19T11:11:23.460Z,3.92
2023-05-19T11:13:30.541Z,3.90
2023-05-19T11:15:39.619Z,4.07
2023-05-19T11:17:48.675Z,4.18
2023-05-19T11:19:59.462Z,4.47
2023-05-19T11:22:12.056Z,4.75
2023-05-19T11:24:41.468Z,5.35
2023-05-19T11:26:46.605Z,4.60
2023-05-19T11:28:53.334Z,4.70
2023-05-19T11:31:00.264Z,5.80
2023-05-19T11:33:06.206Z,4.57
2023-05-19T11:35:12.861Z,5.50
2023-05-19T11:37:17.904Z,5.65
2023-05-19T11:39:26.797Z,5.45
2023-05-19T11:41:34.498Z,5.30
2023-05-19T11:43:39.508Z,5.63
2023-05-19T11:45:44.909Z,5.47
2023-05-19T11:48:01.128Z,6.28
2023-05-19T11:50:08.167Z,5.40
2023-05-19T11:52:13.483Z,5.72
2023-05-19T11:54:19.120Z,5.88
2023-05-19T11:56:26.870Z,6.18
2023-05-19T11:58:34.553Z,6.75
2023-05-19T12:00:41.670Z,6.93
2023-05-19T12:02:47.064Z,6.18
2023-05-19T12:04:53.536Z,6.05
2023-05-19T12:06:59.150Z,6.10
2023-05-19T12:09:05.103Z,5.90
2023-05-19T12:11:10.325Z,6.03
2023-05-19T12:13:16.034Z,5.90
2023-05-19T12:15:30.754Z,6.00
2023-05-19T12:17:36.066Z,6.00
2023-05-19T12:19:41.631Z,6.00
2023-05-19T12:21:46.786Z,6.68
2023-05-19T12:23:52.504Z,6.57
2023-05-19T12:25:57.666Z,6.47
2023-05-19T12:28:03.665Z,6.07
2023-05-19T12:30:10.988Z,5.65
2023-05-19T12:32:22.107Z,5.38
2023-05-19T12:34:28.634Z,5.90
2023-05-19T12:36:35.529Z,7.43
2023-05-19T12:38:43.442Z,6.60
2023-05-19T12:40:49.604Z,5.85
2023-05-19T12:42:58.500Z,6.30
2023-05-19T12:45:05.577Z,6.68
2023-05-19T12:47:10.507Z,6.97
2023-05-19T12:49:18.215Z,6.18
2023-05-19T12:51:23.869Z,5.43
2023-05-19T12:53:32.559Z,5.57
2023-05-19T12:55:43.767Z,6.20
2023-05-19T12:57:53.649Z,6.47
2023-05-19T13:00:05.281Z,6.78
2023-05-19T13:02:10.270Z,5.88
2023-05-19T13:04:21.420Z,5.60
2023-05-19T13:06:27.530Z,5.72
2023-05-19T13:08:33.025Z,6.03
2023-05-19T13:10:39.237Z,6.50
2023-05-19T13:12:44.304Z,5.90
2023-05-19T13:14:49.434Z,6.30
2023-05-19T13:16:54.528Z,6.03
2023-05-19T13:19:01.542Z,5.68
2023-05-19T13:21:09.348Z,5.80
2023-05-19T13:23:14.819Z,5.85
2023-05-19T13:25:21.139Z,5.68
2023-05-19T13:27:26.789Z,6.05
2023-05-19T13:29:31.823Z,5.13
2023-05-19T13:31:36.928Z,6.25
2023-05-19T13:33:41.972Z,5.50
2023-05-19T13:35:46.893Z,5.80
2023-05-19T13:37:55.057Z,4.95
2023-05-19T13:40:00.427Z,5.32
2023-05-19T13:42:05.274Z,5.28
2023-05-19T13:44:10.204Z,5.20
2023-05-19T13:46:15.069Z,5.13
2023-05-19T13:48:19.916Z,5.85
2023-05-19T13:50:27.370Z,5.60
2023-05-19T13:52:33.805Z,5.43
2023-05-19T13:54:41.190Z,5.88
2023-05-19T13:56:47.255Z,6.05
2023-05-19T13:58:52.099Z,5.18
2023-05-19T14:00:59.877Z,4.63
2023-05-19T14:03:05.274Z,5.00
2023-05-19T14:05:11.236Z,4.63
2023-05-19T14:07:23.161Z,5.05
2023-05-19T14:09:31.467Z,5.23
2023-05-19T14:11:39.088Z,5.10
2023-05-19T14:13:44.017Z,4.68
2023-05-19T14:15:49.509Z,5.22
2023-05-19T14:17:54.541Z,4.35
2023-05-19T14:20:00.014Z,5.20
2023-05-19T14:22:05.405Z,5.03
2023-05-19T14:24:10.651Z,4.25
2023-05-19T14:26:15.790Z,4.68
2023-05-19T14:28:29.145Z,4.68
2023-05-19T14:30:34.587Z,4.40
2023-05-19T14:32:40.033Z,4.88
2023-05-19T14:34:45.128Z,4.38
2023-05-19T14:36:50.911Z,4.07
2023-05-19T14:38:57.032Z,4.30
2023-05-19T14:41:02.037Z,5.35
2023-05-19T14:43:07.294Z,3.97
2023-05-19T14:45:15.671Z,4.43
2023-05-19T14:47:20.918Z,4.70
2023-05-19T14:49:26.803Z,4.68
2023-05-19T14:51:31.938Z,4.63
2023-05-19T14:53:36.854Z,4.05
2023-05-19T14:55:41.861Z,4.97
2023-05-19T14:57:46.915Z,4.32
2023-05-19T14:59:52.256Z,4.28
2023-05-19T15:02:00.126Z,5.40
2023-05-19T15:04:05.196Z,4.68
2023-05-19T15:06:12.474Z,4.97
2023-05-19T15:08:17.610Z,4.65
2023-05-19T15:10:26.810Z,4.72
2023-05-19T15:12:32.413Z,4.15
2023-05-19T15:14:37.898Z,5.30
2023-05-19T15:16:43.118Z,5.00
2023-05-19T15:18:52.007Z,4.38
2023-05-19T15:20:57.314Z,4.68
2023-05-19T15:23:02.575Z,4.63
2023-05-19T15:25:08.830Z,4.65
2023-05-19T15:27:13.986Z,4.28
2023-05-19T15:29:19.288Z,3.83
2023-05-19T15:31:27.523Z,4.55
2023-05-19T15:33:35.094Z,4.65
2023-05-19T15:35:42.848Z,4.75
2023-05-19T15:37:48.069Z,4.10
2023-05-19T15:39:55.318Z,4.10
2023-05-19T15:42:00.594Z,4.40
2023-05-19T15:44:07.002Z,4.10
2023-05-19T15:46:13.579Z,4.57
2023-05-19T15:48:19.493Z,4.32
2023-05-19T15:50:26.518Z,4.93
2023-05-19T15:52:34.824Z,4.20
2023-05-19T15:54:39.820Z,4.00
2023-05-19T15:56:45.726Z,4.30
2023-05-19T15:58:51.150Z,3.97
2023-05-19T16:00:57.344Z,4.47
2023-05-19T16:03:02.343Z,3.85
2023-05-19T16:05:08.096Z,4.18
2023-05-19T16:07:13.084Z,4.60
2023-05-19T16:09:20.961Z,3.67
2023-05-19T16:11:27.711Z,4.20
2023-05-19T16:13:34.140Z,4.10
2023-05-19T16:15:39.378Z,4.30
2023-05-19T16:17:44.933Z,4.10
2023-05-19T16:19:52.565Z,4.30
2023-05-19T16:21:57.680Z,4.60
2023-05-19T16:24:02.938Z,4.45
2023-05-19T16:26:10.794Z,4.57
2023-05-19T16:28:15.941Z,3.85
2023-05-19T16:30:26.594Z,3.70
2023-05-19T16:32:31.632Z,4.80
2023-05-19T16:34:36.690Z,3.88
2023-05-19T16:36:41.790Z,3.88
2023-05-19T16:38:46.738Z,3.72
2023-05-19T16:40:52.445Z,4.43
2023-05-19T16:43:00.170Z,3.60
2023-05-19T16:45:05.182Z,4.25
2023-05-19T16:47:10.243Z,3.85
2023-05-19T16:49:15.280Z,3.60
2023-05-19T16:51:23.318Z,4.03
2023-05-19T16:53:29.032Z,3.60
2023-05-19T16:55:33.965Z,5.30
2023-05-19T16:57:38.901Z,3.40
2023-05-19T16:59:46.666Z,3.80
2023-05-19T17:01:53.353Z,4.00
2023-05-19T17:03:58.578Z,3.80
2023-05-19T17:06:03.529Z,4.25
2023-05-19T17:08:08.853Z,3.40
2023-05-19T17:10:14.722Z,3.63
2023-05-19T17:12:19.744Z,3.80
2023-05-19T17:14:27.762Z,3.40
2023-05-19T17:16:35.618Z,3.40
2023-05-19T17:18:40.893Z,4.65
2023-05-19T17:20:46.113Z,3.38
2023-05-19T17:22:51.054Z,4.20
2023-05-19T17:24:57.627Z,3.80
2023-05-19T17:27:02.724Z,4.30
2023-05-19T17:29:07.493Z,3.63
2023-05-19T17:31:13.364Z,4.53
2023-05-19T17:33:21.417Z,3.75
2023-05-19T17:35:28.514Z,3.70
2023-05-19T17:37:33.680Z,3.65
2023-05-19T17:39:38.656Z,3.70
2023-05-19T17:41:43.625Z,4.13
2023-05-19T17:43:48.612Z,3.40
2023-05-19T17:45:58.783Z,3.65
2023-05-19T17:48:05.394Z,3.53
2023-05-19T17:50:13.760Z,3.70
2023-05-19T17:52:19.515Z,3.67
2023-05-19T17:54:26.679Z,3.97
2023-05-19T17:56:36.809Z,3.65
2023-05-19T17:58:42.372Z,4.00
2023-05-19T18:00:48.146Z,3.58
2023-05-19T18:02:54.149Z,3.38
2023-05-19T18:05:02.790Z,3.55
2023-05-19T18:07:12.256Z,3.15
2023-05-19T18:09:20.980Z,3.50
2023-05-19T18:11:27.250Z,3.45
2023-05-19T18:13:35.561Z,3.53
2023-05-19T18:15:43.823Z,3.30
2023-05-19T18:17:50.984Z,3.50
2023-05-19T18:19:57.717Z,3.50
2023-05-19T18:22:02.703Z,3.17
2023-05-19T18:24:10.456Z,3.78
2023-05-19T18:26:16.093Z,3.83
2023-05-19T18:28:24.525Z,3.38
2023-05-19T18:30:30.821Z,3.72
2023-05-19T18:32:37.171Z,3.78
2023-05-19T18:34:42.325Z,3.90
2023-05-19T18:36:47.364Z,3.70
2023-05-19T18:38:53.597Z,4.00
2023-05-19T18:41:01.244Z,4.88
2023-05-19T18:43:06.714Z,4.53
2023-05-19T18:45:13.173Z,4.55
2023-05-19T18:47:19.120Z,4.68
2023-05-19T18:49:27.523Z,4.53
2023-05-19T18:51:38.796Z,4.72
2023-05-19T18:53:43.813Z,5.05
2023-05-19T18:55:48.990Z,4.75
2023-05-19T18:57:57.081Z,4.22
2023-05-19T19:00:02.324Z,5.72
2023-05-19T19:02:09.120Z,5.70
2023-05-19T19:04:15.182Z,4.90
2023-05-19T19:06:21.048Z,5.88
2023-05-19T19:08:27.693Z,6.40
2023-05-19T19:10:38.604Z,5.57
2023-05-19T19:12:43.856Z,6.28
2023-05-19T19:14:51.461Z,5.72
2023-05-19T19:16:57.620Z,5.90
2023-05-19T19:19:06.486Z,6.18
2023-05-19T19:21:12.012Z,6.53
2023-05-19T19:23:19.210Z,6.43
2023-05-19T19:25:26.068Z,5.85
2023-05-19T19:27:31.823Z,6.53
2023-05-19T19:29:36.890Z,6.63
2023-05-19T19:31:44.759Z,6.18
2023-05-19T19:33:52.320Z,5.80
2023-05-19T19:35:57.561Z,6.28
2023-05-19T19:38:02.528Z,6.28
2023-05-19T19:40:09.282Z,6.22
2023-05-19T19:42:14.273Z,7.07
2023-05-19T19:44:19.478Z,7.30
2023-05-19T19:46:25.309Z,6.68
2023-05-19T19:48:36.538Z,6.28
2023-05-19T19:50:41.608Z,7.35
2023-05-19T19:52:46.762Z,6.35
2023-05-19T19:54:52.748Z,6.90
2023-05-19T19:56:57.712Z,7.45
2023-05-19T19:59:02.899Z,6.88
2023-05-19T20:01:08.683Z,7.13
2023-05-19T20:03:14.004Z,6.50
2023-05-19T20:05:28.133Z,6.43
2023-05-19T20:07:33.798Z,6.20
2023-05-19T20:09:39.134Z,6.45
2023-05-19T20:11:44.201Z,6.45
2023-05-19T20:13:49.504Z,6.15
2023-05-19T20:15:57.128Z,7.22
2023-05-19T20:18:02.424Z,5.95
2023-05-19T20:20:11.167Z,6.65
2023-05-19T20:22:19.130Z,7.75
2023-05-19T20:24:26.754Z,6.18
2023-05-19T20:26:32.758Z,6.82
2023-05-19T20:28:38.188Z,6.72
2023-05-19T20:30:43.305Z,7.40
2023-05-19T20:32:49.112Z,6.75
2023-05-19T20:34:55.330Z,6.70
2023-05-19T20:37:00.444Z,7.18
2023-05-19T20:39:08.275Z,7.25
2023-05-19T20:41:13.145Z,6.95
2023-05-19T20:43:21.160Z,7.03
2023-05-19T20:45:26.932Z,7.53
2023-05-19T20:47:32.028Z,7.68
2023-05-19T20:49:40.037Z,7.28
2023-05-19T20:51:45.122Z,7.35
2023-05-19T20:53:53.535Z,7.07
2023-05-19T20:56:01.320Z,7.30
2023-05-19T20:58:06.364Z,8.13
2023-05-19T21:00:12.660Z,6.55
2023-05-19T21:02:17.757Z,6.75
2023-05-19T21:04:27.271Z,6.30
2023-05-19T21:06:35.340Z,6.88
2023-05-19T21:08:40.880Z,7.00
2023-05-19T21:10:46.072Z,8.20
2023-05-19T21:12:53.670Z,6.90
2023-05-19T21:15:01.693Z,5.65
2023-05-19T21:17:07.376Z,6.85
2023-05-19T21:19:12.574Z,6.25
2023-05-19T21:21:18.105Z,6.03
2023-05-19T21:23:26.728Z,6.05
2023-05-19T21:25:31.941Z,6.05
2023-05-19T21:27:37.129Z,6.05
2023-05-19T21:29:44.897Z,5.78
2023-05-19T21:31:52.499Z,5.90
2023-05-19T21:33:58.187Z,5.43
2023-05-19T21:36:03.328Z,6.00
2023-05-19T21:38:21.968Z,5.70
2023-05-19T21:40:31.740Z,5.72
2023-05-19T21:42:37.595Z,5.80
2023-05-19T21:44:45.292Z,6.38
2023-05-19T21:46:53.766Z,5.45
2023-05-19T21:49:01.528Z,5.60
2023-05-19T21:51:06.948Z,5.78
2023-05-19T21:53:12.064Z,5.38
2023-05-19T21:55:19.682Z,5.47
2023-05-19T21:57:25.215Z,6.13
2023-05-19T21:59:30.639Z,6.13
2023-05-19T22:01:38.242Z,5.78
2023-05-19T22:03:43.433Z,5.70
2023-05-19T22:05:53.749Z,5.28
2023-05-19T22:08:00.134Z,4.97
2023-05-19T22:10:05.130Z,5.38
2023-05-19T22:12:11.359Z,5.43
2023-05-19T22:14:16.719Z,5.50
2023-05-19T22:16:22.941Z,5.07
2023-05-19T22:18:30.598Z,5.53
2023-05-19T22:20:35.802Z,5.40
2023-05-19T22:22:43.912Z,5.40
2023-05-19T22:24:49.085Z,5.18
2023-05-19T22:26:53.998Z,6.65
2023-05-19T22:29:01.190Z,5.80
2023-05-19T22:31:06.434Z,5.38
2023-05-19T22:33:12.133Z,5.68
2023-05-19T22:35:23.655Z,6.10
2023-05-19T22:37:31.447Z,5.18
2023-05-19T22:39:36.600Z,5.30
2023-05-19T22:41:42.451Z,5.63
2023-05-19T22:43:47.447Z,5.55
2023-05-19T22:45:52.832Z,5.75
2023-05-19T22:47:58.284Z,5.90
2023-05-19T22:50:03.338Z,5.10
2023-05-19T22:52:13.565Z,6.40
2023-05-19T22:54:21.214Z,6.03
2023-05-19T22:56:27.296Z,7.00
2023-05-19T22:58:34.977Z,5.90
2023-05-19T23:00:39.973Z,5.75
2023-05-19T23:02:45.140Z,6.75
2023-05-19T23:04:50.433Z,5.05
2023-05-19T23:06:56.993Z,7.05
2023-05-19T23:09:06.438Z,5.95
2023-05-19T23:11:11.622Z,5.60
2023-05-19T23:13:18.074Z,6.43
2023-05-19T23:15:25.597Z,5.60
2023-05-19T23:17:30.774Z,4.95
2023-05-19T23:19:37.176Z,6.20
2023-05-19T23:21:42.483Z,5.55
2023-05-19T23:23:47.459Z,5.82
2023-05-19T23:25:55.148Z,5.50
2023-05-19T23:28:00.790Z,5.53
2023-05-19T23:30:06.128Z,5.93
2023-05-19T23:32:11.556Z,6.45
2023-05-19T23:34:16.730Z,5.97
2023-05-19T23:36:25.361Z,6.32
2023-05-19T23:38:30.448Z,5.93
2023-05-19T23:40:35.586Z,6.85
2023-05-19T23:42:44.819Z,5.78
2023-05-19T23:44:50.386Z,6.72
2023-05-19T23:46:56.268Z,6.50
2023-05-19T23:49:01.349Z,6.28
2023-05-19T23:51:06.571Z,6.43
2023-05-19T23:53:11.754Z,6.25
2023-05-19T23:55:16.788Z,6.90
2023-05-19T23:57:23.321Z,5.93
2023-05-19T23:59:31.154Z,7.45
